PWSweather.com
Personal Weather Stations
Station Observations
KILMORRI1
Goose Lake, Morris, IL 60450

Goose LakeMorris, IL 60450

Lat: 41.34, Lon: -88.3

Elevation: 523

Station Type:

www.gooselakeweather.com

High Low Average
Temperature 85.5°F29.7°C 52.7°F11.5°C 71.3°F21.8°C
Dew Point 58.0°F14.4°C 36.4°F2.4°C 48.2°F9.0°C
Winds 15.0 mph 24.1 kmh 2.3 mph 3.7 kmh 7.0 mph SSW11.3 kmh SSW
Wind Gusts 20.7 mph33.3 kmh 3.5 mph5.6 kmh 11.0 mph17.7 kmh
Humidity 58% 31% 45%
Pressure 29.99 in1015.6 mb 29.84 in1010.5 mb -
Precipitation 0.00 in0.0 mm - -
Hour Temp Dew Point Humidity Winds Wind Gusts Pressure Precip Precip Rate Daily Precip Total
12:00 AM 59.8°F15.4°C 36.7°F2.6°C 42% 5.8 mph S9.3 kmh S 11.5 mph18.5 kmh 29.95 in1014.2 mb - 0.00 in0.0 mm 0.00 in0.0 mm
12:10 AM 59.8°F15.4°C 37.2°F2.9°C 43% 4.6 mph S7.4 kmh S 6.9 mph11.1 kmh 29.95 in1014.2 mb - 0.00 in0.0 mm 0.00 in0.0 mm
12:20 AM 59.6°F15.3°C 36.5°F2.5°C 42% 8.1 mph S13.0 kmh S 10.4 mph16.7 kmh 29.95 in1014.2 mb - 0.00 in0.0 mm 0.00 in0.0 mm
12:30 AM 59.0°F15.0°C 36.6°F2.6°C 43% 6.9 mph S11.1 kmh S 12.7 mph20.4 kmh 29.95 in1014.2 mb - 0.00 in0.0 mm 0.00 in0.0 mm
12:40 AM 58.8°F14.9°C 36.9°F2.7°C 44% 6.9 mph S11.1 kmh S 9.2 mph14.8 kmh 29.95 in1014.2 mb - 0.00 in0.0 mm 0.00 in0.0 mm
12:50 AM 57.9°F14.4°C 36.7°F2.6°C 45% 6.9 mph S11.1 kmh S 12.7 mph20.4 kmh 29.95 in1014.2 mb - 0.00 in0.0 mm 0.00 in0.0 mm
01:00 AM 57.8°F14.3°C 36.6°F2.6°C 45% 5.8 mph SSW9.3 kmh SSW 11.5 mph18.5 kmh 29.95 in1014.2 mb - 0.00 in0.0 mm 0.00 in0.0 mm
01:10 AM 57.0°F13.9°C 36.4°F2.4°C 46% 8.1 mph SSW13.0 kmh SSW 10.4 mph16.7 kmh 29.95 in1014.2 mb - 0.00 in0.0 mm 0.00 in0.0 mm
01:20 AM 56.6°F13.7°C 36.6°F2.6°C 47% 6.9 mph S11.1 kmh S 9.2 mph14.8 kmh 29.95 in1014.2 mb - 0.00 in0.0 mm 0.00 in0.0 mm
01:30 AM 56.6°F13.7°C 37.1°F2.8°C 48% 5.8 mph SSW9.3 kmh SSW 10.4 mph16.7 kmh 29.96 in1014.6 mb - 0.00 in0.0 mm 0.00 in0.0 mm
01:40 AM 56.0°F13.3°C 37.1°F2.8°C 49% 4.6 mph S7.4 kmh S 4.6 mph7.4 kmh 29.96 in1014.6 mb - 0.00 in0.0 mm 0.00 in0.0 mm
01:50 AM 56.0°F13.3°C 37.1°F2.8°C 49% 4.6 mph SSW7.4 kmh SSW 8.1 mph13.0 kmh 29.96 in1014.6 mb - 0.00 in0.0 mm 0.00 in0.0 mm
02:00 AM 55.3°F12.9°C 37.0°F2.8°C 50% 4.6 mph SSW7.4 kmh SSW 6.9 mph11.1 kmh 29.97 in1014.9 mb - 0.00 in0.0 mm 0.00 in0.0 mm
02:10 AM 54.7°F12.6°C 37.4°F3.0°C 52% 4.6 mph SSW7.4 kmh SSW 6.9 mph11.1 kmh 29.97 in1014.9 mb - 0.00 in0.0 mm 0.00 in0.0 mm
02:20 AM 54.6°F12.6°C 37.3°F2.9°C 52% 4.6 mph SSW7.4 kmh SSW 8.1 mph13.0 kmh 29.97 in1014.9 mb - 0.00 in0.0 mm 0.00 in0.0 mm
02:30 AM 54.4°F12.4°C 37.1°F2.8°C 52% 3.5 mph S5.6 kmh S 10.4 mph16.7 kmh 29.97 in1014.9 mb - 0.00 in0.0 mm 0.00 in0.0 mm
02:40 AM 54.1°F12.3°C 37.3°F2.9°C 53% 5.8 mph S9.3 kmh S 8.1 mph13.0 kmh 29.97 in1014.9 mb - 0.00 in0.0 mm 0.00 in0.0 mm
02:50 AM 53.8°F12.1°C 37.5°F3.1°C 54% 2.3 mph S3.7 kmh S 3.5 mph5.6 kmh 29.97 in1014.9 mb - 0.00 in0.0 mm 0.00 in0.0 mm
03:00 AM 53.6°F12.0°C 37.3°F2.9°C 54% 4.6 mph S7.4 kmh S 8.1 mph13.0 kmh 29.97 in1014.9 mb - 0.00 in0.0 mm 0.00 in0.0 mm
03:10 AM 53.2°F11.8°C 37.4°F3.0°C 55% 4.6 mph S7.4 kmh S 10.4 mph16.7 kmh 29.97 in1014.9 mb - 0.00 in0.0 mm 0.00 in0.0 mm
03:20 AM 53.1°F11.7°C 37.3°F2.9°C 55% 4.6 mph S7.4 kmh S 5.8 mph9.3 kmh 29.97 in1014.9 mb - 0.00 in0.0 mm 0.00 in0.0 mm
03:30 AM 53.4°F11.9°C 37.2°F2.9°C 54% 3.5 mph S5.6 kmh S 6.9 mph11.1 kmh 29.97 in1014.9 mb - 0.00 in0.0 mm 0.00 in0.0 mm
03:40 AM 53.8°F12.1°C 37.6°F3.1°C 54% 5.8 mph S9.3 kmh S 10.4 mph16.7 kmh 29.97 in1014.9 mb - 0.00 in0.0 mm 0.00 in0.0 mm
03:50 AM 54.0°F12.2°C 37.7°F3.2°C 54% 3.5 mph S5.6 kmh S 4.6 mph7.4 kmh 29.97 in1014.9 mb - 0.00 in0.0 mm 0.00 in0.0 mm
04:00 AM 53.8°F12.1°C 37.5°F3.1°C 54% 4.6 mph S7.4 kmh S 5.8 mph9.3 kmh 29.97 in1014.9 mb - 0.00 in0.0 mm 0.00 in0.0 mm
04:10 AM 53.5°F11.9°C 37.3°F2.9°C 54% 5.8 mph S9.3 kmh S 9.2 mph14.8 kmh 29.97 in1014.9 mb - 0.00 in0.0 mm 0.00 in0.0 mm
04:20 AM 53.9°F12.2°C 37.6°F3.1°C 54% 4.6 mph S7.4 kmh S 6.9 mph11.1 kmh 29.97 in1014.9 mb - 0.00 in0.0 mm 0.00 in0.0 mm
04:30 AM 53.7°F12.1°C 37.9°F3.3°C 55% 4.6 mph SSW7.4 kmh SSW 11.5 mph18.5 kmh 29.97 in1014.9 mb - 0.00 in0.0 mm 0.00 in0.0 mm
04:40 AM 53.4°F11.9°C 37.7°F3.2°C 55% 4.6 mph SSW7.4 kmh SSW 9.2 mph14.8 kmh 29.97 in1014.9 mb - 0.00 in0.0 mm 0.00 in0.0 mm
04:50 AM 53.0°F11.7°C 37.7°F3.2°C 56% 5.8 mph S9.3 kmh S 6.9 mph11.1 kmh 29.97 in1014.9 mb - 0.00 in0.0 mm 0.00 in0.0 mm
05:00 AM 52.8°F11.6°C 38.0°F3.3°C 57% 5.8 mph S9.3 kmh S 8.1 mph13.0 kmh 29.97 in1014.9 mb - 0.00 in0.0 mm 0.00 in0.0 mm
05:10 AM 52.7°F11.5°C 38.3°F3.5°C 58% 6.9 mph S11.1 kmh S 11.5 mph18.5 kmh 29.97 in1014.9 mb - 0.00 in0.0 mm 0.00 in0.0 mm
05:20 AM 53.3°F11.8°C 38.4°F3.6°C 57% 5.8 mph S9.3 kmh S 6.9 mph11.1 kmh 29.97 in1014.9 mb - 0.00 in0.0 mm 0.00 in0.0 mm
05:30 AM 53.8°F12.1°C 38.5°F3.6°C 56% 6.9 mph S11.1 kmh S 6.9 mph11.1 kmh 29.97 in1014.9 mb - 0.00 in0.0 mm 0.00 in0.0 mm
05:40 AM 54.4°F12.4°C 39.0°F3.9°C 56% 5.8 mph S9.3 kmh S 8.1 mph13.0 kmh 29.97 in1014.9 mb - 0.00 in0.0 mm 0.00 in0.0 mm
05:50 AM 55.4°F13.0°C 39.0°F3.9°C 54% 6.9 mph S11.1 kmh S 12.7 mph20.4 kmh 29.97 in1014.9 mb - 0.00 in0.0 mm 0.00 in0.0 mm
06:00 AM 56.4°F13.6°C 40.0°F4.4°C 54% 6.9 mph S11.1 kmh S 8.1 mph13.0 kmh 29.97 in1014.9 mb - 0.00 in0.0 mm 0.00 in0.0 mm
06:10 AM 57.6°F14.2°C 40.1°F4.5°C 52% 6.9 mph S11.1 kmh S 11.5 mph18.5 kmh 29.97 in1014.9 mb - 0.00 in0.0 mm 0.00 in0.0 mm
06:20 AM 58.6°F14.8°C 40.5°F4.7°C 51% 6.9 mph S11.1 kmh S 11.5 mph18.5 kmh 29.97 in1014.9 mb - 0.00 in0.0 mm 0.00 in0.0 mm
06:30 AM 59.6°F15.3°C 40.9°F4.9°C 50% 5.8 mph SSW9.3 kmh SSW 6.9 mph11.1 kmh 29.98 in1015.2 mb - 0.00 in0.0 mm 0.00 in0.0 mm
06:40 AM 60.5°F15.8°C 41.2°F5.1°C 49% 6.9 mph SSW11.1 kmh SSW 10.4 mph16.7 kmh 29.99 in1015.6 mb - 0.00 in0.0 mm 0.00 in0.0 mm
06:50 AM 61.7°F16.5°C 42.3°F5.7°C 49% 5.8 mph S9.3 kmh S 8.1 mph13.0 kmh 29.99 in1015.6 mb - 0.00 in0.0 mm 0.00 in0.0 mm
07:00 AM 63.2°F17.3°C 44.3°F6.8°C 50% 6.9 mph SSW11.1 kmh SSW 12.7 mph20.4 kmh 29.99 in1015.6 mb - 0.00 in0.0 mm 0.00 in0.0 mm
07:10 AM 64.7°F18.2°C 44.5°F6.9°C 48% 6.9 mph S11.1 kmh S 8.1 mph13.0 kmh 29.98 in1015.2 mb - 0.00 in0.0 mm 0.00 in0.0 mm
07:20 AM 66.1°F18.9°C 45.9°F7.7°C 48% 6.9 mph SW11.1 kmh SW 9.2 mph14.8 kmh 29.98 in1015.2 mb - 0.00 in0.0 mm 0.00 in0.0 mm
07:30 AM 67.2°F19.6°C 46.2°F7.9°C 47% 6.9 mph SW11.1 kmh SW 9.2 mph14.8 kmh 29.99 in1015.6 mb - 0.00 in0.0 mm 0.00 in0.0 mm
07:40 AM 68.3°F20.2°C 47.3°F8.5°C 47% 8.1 mph SSW13.0 kmh SSW 15.0 mph24.1 kmh 29.98 in1015.2 mb - 0.00 in0.0 mm 0.00 in0.0 mm
07:50 AM 69.0°F20.6°C 47.9°F8.8°C 47% 6.9 mph SSW11.1 kmh SSW 10.4 mph16.7 kmh 29.98 in1015.2 mb - 0.00 in0.0 mm 0.00 in0.0 mm
08:00 AM 70.4°F21.3°C 48.6°F9.2°C 46% 6.9 mph SSW11.1 kmh SSW 11.5 mph18.5 kmh 29.98 in1015.2 mb - 0.00 in0.0 mm 0.00 in0.0 mm
08:10 AM 71.2°F21.8°C 49.4°F9.7°C 46% 4.6 mph SSW7.4 kmh SSW 10.4 mph16.7 kmh 29.98 in1015.2 mb - 0.00 in0.0 mm 0.00 in0.0 mm
08:20 AM 72.2°F22.3°C 49.1°F9.5°C 44% 10.4 mph SW16.7 kmh SW 15.0 mph24.1 kmh 29.98 in1015.2 mb - 0.00 in0.0 mm 0.00 in0.0 mm
08:30 AM 73.3°F22.9°C 52.4°F11.3°C 48% 9.2 mph SSW14.8 kmh SSW 11.5 mph18.5 kmh 29.97 in1014.9 mb - 0.00 in0.0 mm 0.00 in0.0 mm
08:40 AM 74.0°F23.3°C 51.3°F10.7°C 45% 8.1 mph SW13.0 kmh SW 16.1 mph25.9 kmh 29.97 in1014.9 mb - 0.00 in0.0 mm 0.00 in0.0 mm
08:50 AM 75.1°F23.9°C 53.5°F11.9°C 47% 4.6 mph S7.4 kmh S 6.9 mph11.1 kmh 29.97 in1014.9 mb - 0.00 in0.0 mm 0.00 in0.0 mm
09:00 AM 76.3°F24.6°C 52.2°F11.2°C 43% 9.2 mph SW14.8 kmh SW 16.1 mph25.9 kmh 29.96 in1014.6 mb - 0.00 in0.0 mm 0.00 in0.0 mm
09:10 AM 76.8°F24.9°C 52.0°F11.1°C 42% 9.2 mph SW14.8 kmh SW 10.4 mph16.7 kmh 29.96 in1014.6 mb - 0.00 in0.0 mm 0.00 in0.0 mm
09:20 AM 77.4°F25.2°C 53.1°F11.7°C 43% 9.2 mph SSW14.8 kmh SSW 17.3 mph27.8 kmh 29.96 in1014.6 mb - 0.00 in0.0 mm 0.00 in0.0 mm
09:30 AM 77.6°F25.3°C 52.7°F11.5°C 42% 13.8 mph SW22.2 kmh SW 18.4 mph29.6 kmh 29.95 in1014.2 mb - 0.00 in0.0 mm 0.00 in0.0 mm
09:40 AM 78.6°F25.9°C 53.6°F12.0°C 42% 8.1 mph S13.0 kmh S 11.5 mph18.5 kmh 29.95 in1014.2 mb - 0.00 in0.0 mm 0.00 in0.0 mm
09:50 AM 79.1°F26.2°C 54.0°F12.2°C 42% 9.2 mph SSW14.8 kmh SSW 11.5 mph18.5 kmh 29.95 in1014.2 mb - 0.00 in0.0 mm 0.00 in0.0 mm
10:00 AM 79.4°F26.3°C 54.3°F12.4°C 42% 8.1 mph SSW13.0 kmh SSW 12.7 mph20.4 kmh 29.95 in1014.2 mb - 0.00 in0.0 mm 0.00 in0.0 mm
10:10 AM 80.2°F26.8°C 55.7°F13.2°C 43% 9.2 mph SSW14.8 kmh SSW 15.0 mph24.1 kmh 29.96 in1014.6 mb - 0.00 in0.0 mm 0.00 in0.0 mm
10:20 AM 80.3°F26.8°C 56.4°F13.6°C 44% 9.2 mph SW14.8 kmh SW 16.1 mph25.9 kmh 29.95 in1014.2 mb - 0.00 in0.0 mm 0.00 in0.0 mm
10:30 AM 80.9°F27.2°C 56.9°F13.8°C 44% 9.2 mph SW14.8 kmh SW 10.4 mph16.7 kmh 29.95 in1014.2 mb - 0.00 in0.0 mm 0.00 in0.0 mm
10:40 AM 81.5°F27.5°C 57.5°F14.2°C 44% 5.8 mph SW9.3 kmh SW 8.1 mph13.0 kmh 29.95 in1014.2 mb - 0.00 in0.0 mm 0.00 in0.0 mm
10:50 AM 81.3°F27.4°C 58.0°F14.4°C 45% 10.4 mph SW16.7 kmh SW 15.0 mph24.1 kmh 29.95 in1014.2 mb - 0.00 in0.0 mm 0.00 in0.0 mm
11:00 AM 80.6°F27.0°C 54.7°F12.6°C 41% 8.1 mph WSW13.0 kmh WSW 11.5 mph18.5 kmh 29.95 in1014.2 mb - 0.00 in0.0 mm 0.00 in0.0 mm
11:10 AM 81.6°F27.6°C 56.9°F13.8°C 43% 10.4 mph WSW16.7 kmh WSW 17.3 mph27.8 kmh 29.95 in1014.2 mb - 0.00 in0.0 mm 0.00 in0.0 mm
11:20 AM 82.0°F27.8°C 57.3°F14.1°C 43% 9.2 mph SW14.8 kmh SW 12.7 mph20.4 kmh 29.95 in1014.2 mb - 0.00 in0.0 mm 0.00 in0.0 mm
11:30 AM 82.0°F27.8°C 55.9°F13.3°C 41% 9.2 mph W14.8 kmh W 19.6 mph31.5 kmh 29.95 in1014.2 mb - 0.00 in0.0 mm 0.00 in0.0 mm
11:40 AM 79.6°F26.4°C 53.8°F12.1°C 41% 9.2 mph SW14.8 kmh SW 11.5 mph18.5 kmh 29.95 in1014.2 mb - 0.00 in0.0 mm 0.00 in0.0 mm
11:50 AM 80.5°F26.9°C 55.3°F12.9°C 42% 9.2 mph SW14.8 kmh SW 17.3 mph27.8 kmh 29.94 in1013.9 mb - 0.00 in0.0 mm 0.00 in0.0 mm
12:00 PM 81.9°F27.7°C 55.8°F13.2°C 41% 6.9 mph SW11.1 kmh SW 11.5 mph18.5 kmh 29.94 in1013.9 mb - 0.00 in0.0 mm 0.00 in0.0 mm
12:10 PM 83.4°F28.6°C 55.8°F13.2°C 39% 9.2 mph SW14.8 kmh SW 20.7 mph33.3 kmh 29.94 in1013.9 mb - 0.00 in0.0 mm 0.00 in0.0 mm
12:20 PM 83.4°F28.6°C 55.9°F13.3°C 39% 8.1 mph SW13.0 kmh SW 16.1 mph25.9 kmh 29.93 in1013.5 mb - 0.00 in0.0 mm 0.00 in0.0 mm
12:30 PM 83.8°F28.8°C 55.5°F13.1°C 38% 8.1 mph SW13.0 kmh SW 16.1 mph25.9 kmh 29.93 in1013.5 mb - 0.00 in0.0 mm 0.00 in0.0 mm
12:40 PM 84.4°F29.1°C 55.3°F12.9°C 37% 6.9 mph S11.1 kmh S 11.5 mph18.5 kmh 29.92 in1013.2 mb - 0.00 in0.0 mm 0.00 in0.0 mm
12:50 PM 83.8°F28.8°C 54.0°F12.2°C 36% 8.1 mph SSW13.0 kmh SSW 13.8 mph22.2 kmh 29.92 in1013.2 mb - 0.00 in0.0 mm 0.00 in0.0 mm
01:00 PM 84.0°F28.9°C 53.4°F11.9°C 35% 8.1 mph SW13.0 kmh SW 12.7 mph20.4 kmh 29.92 in1013.2 mb - 0.00 in0.0 mm 0.00 in0.0 mm
01:10 PM 84.7°F29.3°C 54.8°F12.7°C 36% 10.4 mph SW16.7 kmh SW 13.8 mph22.2 kmh 29.91 in1012.9 mb - 0.00 in0.0 mm 0.00 in0.0 mm
01:20 PM 84.8°F29.3°C 53.3°F11.8°C 34% 8.1 mph SW13.0 kmh SW 12.7 mph20.4 kmh 29.91 in1012.9 mb - 0.00 in0.0 mm 0.00 in0.0 mm
01:30 PM 85.3°F29.6°C 52.1°F11.2°C 32% 8.1 mph SW13.0 kmh SW 11.5 mph18.5 kmh 29.90 in1012.5 mb - 0.00 in0.0 mm 0.00 in0.0 mm
01:40 PM 84.4°F29.1°C 53.8°F12.1°C 35% 6.9 mph SSW11.1 kmh SSW 6.9 mph11.1 kmh 29.90 in1012.5 mb - 0.00 in0.0 mm 0.00 in0.0 mm
01:50 PM 85.5°F29.7°C 54.7°F12.6°C 35% 9.2 mph S14.8 kmh S 9.2 mph14.8 kmh 29.90 in1012.5 mb - 0.00 in0.0 mm 0.00 in0.0 mm
02:00 PM 85.5°F29.7°C 54.0°F12.2°C 34% 8.1 mph SSW13.0 kmh SSW 10.4 mph16.7 kmh 29.89 in1012.2 mb - 0.00 in0.0 mm 0.00 in0.0 mm
02:10 PM 84.9°F29.4°C 51.8°F11.0°C 32% 12.7 mph SW20.4 kmh SW 17.3 mph27.8 kmh 29.88 in1011.9 mb - 0.00 in0.0 mm 0.00 in0.0 mm
02:20 PM 84.7°F29.3°C 52.4°F11.3°C 33% 15.0 mph SSW24.1 kmh SSW 19.6 mph31.5 kmh 29.88 in1011.9 mb - 0.00 in0.0 mm 0.00 in0.0 mm
02:30 PM 84.0°F28.9°C 51.8°F11.0°C 33% 11.5 mph SSW18.5 kmh SSW 15.0 mph24.1 kmh 29.88 in1011.9 mb - 0.00 in0.0 mm 0.00 in0.0 mm
02:40 PM 84.7°F29.3°C 52.4°F11.3°C 33% 6.9 mph S11.1 kmh S 12.7 mph20.4 kmh 29.88 in1011.9 mb - 0.00 in0.0 mm 0.00 in0.0 mm
02:50 PM 84.5°F29.2°C 52.3°F11.3°C 33% 8.1 mph SW13.0 kmh SW 13.8 mph22.2 kmh 29.88 in1011.9 mb - 0.00 in0.0 mm 0.00 in0.0 mm
03:00 PM 83.0°F28.3°C 50.9°F10.5°C 33% 6.9 mph SSW11.1 kmh SSW 11.5 mph18.5 kmh 29.88 in1011.9 mb - 0.00 in0.0 mm 0.00 in0.0 mm
03:10 PM 83.0°F28.3°C 51.7°F10.9°C 34% 8.1 mph S13.0 kmh S 12.7 mph20.4 kmh 29.88 in1011.9 mb - 0.00 in0.0 mm 0.00 in0.0 mm
03:20 PM 83.0°F28.3°C 51.7°F10.9°C 34% 8.1 mph SW13.0 kmh SW 12.7 mph20.4 kmh 29.87 in1011.5 mb - 0.00 in0.0 mm 0.00 in0.0 mm
03:30 PM 82.9°F28.3°C 50.9°F10.5°C 33% 9.2 mph SSW14.8 kmh SSW 18.4 mph29.6 kmh 29.87 in1011.5 mb - 0.00 in0.0 mm 0.00 in0.0 mm
03:40 PM 82.8°F28.2°C 50.7°F10.4°C 33% 6.9 mph S11.1 kmh S 10.4 mph16.7 kmh 29.87 in1011.5 mb - 0.00 in0.0 mm 0.00 in0.0 mm
03:50 PM 82.9°F28.3°C 50.9°F10.5°C 33% 8.1 mph S13.0 kmh S 15.0 mph24.1 kmh 29.87 in1011.5 mb - 0.00 in0.0 mm 0.00 in0.0 mm
04:00 PM 83.3°F28.5°C 49.5°F9.7°C 31% 10.4 mph SSW16.7 kmh SSW 16.1 mph25.9 kmh 29.87 in1011.5 mb - 0.00 in0.0 mm 0.00 in0.0 mm
04:10 PM 83.1°F28.4°C 50.2°F10.1°C 32% 10.4 mph SW16.7 kmh SW 13.8 mph22.2 kmh 29.87 in1011.5 mb - 0.00 in0.0 mm 0.00 in0.0 mm
04:20 PM 82.0°F27.8°C 50.9°F10.5°C 34% 9.2 mph S14.8 kmh S 11.5 mph18.5 kmh 29.87 in1011.5 mb - 0.00 in0.0 mm 0.00 in0.0 mm
04:30 PM 81.7°F27.6°C 49.8°F9.9°C 33% 9.2 mph S14.8 kmh S 13.8 mph22.2 kmh 29.87 in1011.5 mb - 0.00 in0.0 mm 0.00 in0.0 mm
04:40 PM 81.8°F27.7°C 51.5°F10.8°C 35% 5.8 mph S9.3 kmh S 9.2 mph14.8 kmh 29.86 in1011.2 mb - 0.00 in0.0 mm 0.00 in0.0 mm
04:50 PM 82.7°F28.2°C 50.7°F10.4°C 33% 12.7 mph S20.4 kmh S 17.3 mph27.8 kmh 29.86 in1011.2 mb - 0.00 in0.0 mm 0.00 in0.0 mm
05:00 PM 82.9°F28.3°C 53.2°F11.8°C 36% 8.1 mph SW13.0 kmh SW 11.5 mph18.5 kmh 29.86 in1011.2 mb - 0.00 in0.0 mm 0.00 in0.0 mm
05:10 PM 82.4°F28.0°C 51.2°F10.7°C 34% 9.2 mph SSW14.8 kmh SSW 18.4 mph29.6 kmh 29.86 in1011.2 mb - 0.00 in0.0 mm 0.00 in0.0 mm
05:20 PM 82.1°F27.8°C 50.9°F10.5°C 34% 9.2 mph S14.8 kmh S 10.4 mph16.7 kmh 29.85 in1010.8 mb - 0.00 in0.0 mm 0.00 in0.0 mm
05:30 PM 81.6°F27.6°C 52.0°F11.1°C 36% 9.2 mph S14.8 kmh S 11.5 mph18.5 kmh 29.85 in1010.8 mb - 0.00 in0.0 mm 0.00 in0.0 mm
05:40 PM 81.4°F27.4°C 51.9°F11.1°C 36% 10.4 mph S16.7 kmh S 11.5 mph18.5 kmh 29.84 in1010.5 mb - 0.00 in0.0 mm 0.00 in0.0 mm
05:50 PM 80.9°F27.2°C 51.4°F10.8°C 36% 8.1 mph SSW13.0 kmh SSW 19.6 mph31.5 kmh 29.84 in1010.5 mb - 0.00 in0.0 mm 0.00 in0.0 mm
06:00 PM 80.5°F26.9°C 51.9°F11.1°C 37% 4.6 mph S7.4 kmh S 6.9 mph11.1 kmh 29.84 in1010.5 mb - 0.00 in0.0 mm 0.00 in0.0 mm
06:10 PM 79.8°F26.6°C 51.9°F11.1°C 38% 5.8 mph S9.3 kmh S 6.9 mph11.1 kmh 29.84 in1010.5 mb - 0.00 in0.0 mm 0.00 in0.0 mm
06:20 PM 79.6°F26.4°C 51.7°F10.9°C 38% 6.9 mph S11.1 kmh S 8.1 mph13.0 kmh 29.85 in1010.8 mb - 0.00 in0.0 mm 0.00 in0.0 mm
06:30 PM 79.2°F26.2°C 52.1°F11.2°C 39% 6.9 mph S11.1 kmh S 13.8 mph22.2 kmh 29.85 in1010.8 mb - 0.00 in0.0 mm 0.00 in0.0 mm
06:40 PM 78.4°F25.8°C 52.1°F11.2°C 40% 5.8 mph S9.3 kmh S 10.4 mph16.7 kmh 29.85 in1010.8 mb - 0.00 in0.0 mm 0.00 in0.0 mm
06:50 PM 77.9°F25.5°C 52.3°F11.3°C 41% 5.8 mph S9.3 kmh S 8.1 mph13.0 kmh 29.86 in1011.2 mb - 0.00 in0.0 mm 0.00 in0.0 mm
07:00 PM 77.2°F25.1°C 53.0°F11.7°C 43% 4.6 mph S7.4 kmh S 11.5 mph18.5 kmh 29.86 in1011.2 mb - 0.00 in0.0 mm 0.00 in0.0 mm
07:10 PM 76.5°F24.7°C 52.4°F11.3°C 43% 5.8 mph S9.3 kmh S 11.5 mph18.5 kmh 29.86 in1011.2 mb - 0.00 in0.0 mm 0.00 in0.0 mm
07:20 PM 76.0°F24.4°C 52.5°F11.4°C 44% 3.5 mph S5.6 kmh S 13.8 mph22.2 kmh 29.86 in1011.2 mb - 0.00 in0.0 mm 0.00 in0.0 mm
07:30 PM 75.2°F24.0°C 52.4°F11.3°C 45% 3.5 mph S5.6 kmh S 9.2 mph14.8 kmh 29.86 in1011.2 mb - 0.00 in0.0 mm 0.00 in0.0 mm
07:40 PM 75.4°F24.1°C 52.6°F11.4°C 45% 5.8 mph S9.3 kmh S 8.1 mph13.0 kmh 29.86 in1011.2 mb - 0.00 in0.0 mm 0.00 in0.0 mm
07:50 PM 75.1°F23.9°C 52.9°F11.6°C 46% 5.8 mph S9.3 kmh S 11.5 mph18.5 kmh 29.87 in1011.5 mb - 0.00 in0.0 mm 0.00 in0.0 mm
08:00 PM 74.7°F23.7°C 52.6°F11.4°C 46% 5.8 mph S9.3 kmh S 8.1 mph13.0 kmh 29.87 in1011.5 mb - 0.00 in0.0 mm 0.00 in0.0 mm
08:10 PM 74.1°F23.4°C 52.6°F11.4°C 47% 5.8 mph S9.3 kmh S 9.2 mph14.8 kmh 29.88 in1011.9 mb - 0.00 in0.0 mm 0.00 in0.0 mm
08:20 PM 73.6°F23.1°C 52.7°F11.5°C 48% 6.9 mph S11.1 kmh S 15.0 mph24.1 kmh 29.88 in1011.9 mb - 0.00 in0.0 mm 0.00 in0.0 mm
08:30 PM 73.2°F22.9°C 52.4°F11.3°C 48% 5.8 mph SSW9.3 kmh SSW 8.1 mph13.0 kmh 29.88 in1011.9 mb - 0.00 in0.0 mm 0.00 in0.0 mm
08:40 PM 73.3°F22.9°C 52.4°F11.3°C 48% 6.9 mph S11.1 kmh S 10.4 mph16.7 kmh 29.88 in1011.9 mb - 0.00 in0.0 mm 0.00 in0.0 mm
08:50 PM 72.9°F22.7°C 52.6°F11.4°C 49% 4.6 mph S7.4 kmh S 5.8 mph9.3 kmh 29.89 in1012.2 mb - 0.00 in0.0 mm 0.00 in0.0 mm
09:00 PM 72.6°F22.6°C 52.3°F11.3°C 49% 5.8 mph SSW9.3 kmh SSW 8.1 mph13.0 kmh 29.89 in1012.2 mb - 0.00 in0.0 mm 0.00 in0.0 mm
09:10 PM 72.6°F22.6°C 52.3°F11.3°C 49% 8.1 mph S13.0 kmh S 11.5 mph18.5 kmh 29.89 in1012.2 mb - 0.00 in0.0 mm 0.00 in0.0 mm
09:20 PM 72.4°F22.4°C 52.1°F11.2°C 49% 6.9 mph S11.1 kmh S 13.8 mph22.2 kmh 29.89 in1012.2 mb - 0.00 in0.0 mm 0.00 in0.0 mm
09:30 PM 72.2°F22.3°C 52.0°F11.1°C 49% 10.4 mph SSW16.7 kmh SSW 16.1 mph25.9 kmh 29.90 in1012.5 mb - 0.00 in0.0 mm 0.00 in0.0 mm
09:40 PM 72.1°F22.3°C 52.4°F11.3°C 50% 9.2 mph S14.8 kmh S 12.7 mph20.4 kmh 29.89 in1012.2 mb - 0.00 in0.0 mm 0.00 in0.0 mm
09:50 PM 71.8°F22.1°C 52.1°F11.2°C 50% 6.9 mph S11.1 kmh S 11.5 mph18.5 kmh 29.89 in1012.2 mb - 0.00 in0.0 mm 0.00 in0.0 mm
10:00 PM 71.5°F21.9°C 52.4°F11.3°C 51% 5.8 mph SSW9.3 kmh SSW 11.5 mph18.5 kmh 29.89 in1012.2 mb - 0.00 in0.0 mm 0.00 in0.0 mm
10:10 PM 71.1°F21.7°C 52.6°F11.4°C 52% 6.9 mph SSW11.1 kmh SSW 13.8 mph22.2 kmh 29.89 in1012.2 mb - 0.00 in0.0 mm 0.00 in0.0 mm
10:20 PM 71.2°F21.8°C 52.7°F11.5°C 52% 8.1 mph S13.0 kmh S 11.5 mph18.5 kmh 29.89 in1012.2 mb - 0.00 in0.0 mm 0.00 in0.0 mm
10:30 PM 70.8°F21.6°C 52.8°F11.6°C 53% 5.8 mph S9.3 kmh S 10.4 mph16.7 kmh 29.89 in1012.2 mb - 0.00 in0.0 mm 0.00 in0.0 mm
10:40 PM 70.7°F21.5°C 52.2°F11.2°C 52% 8.1 mph SW13.0 kmh SW 15.0 mph24.1 kmh 29.89 in1012.2 mb - 0.00 in0.0 mm 0.00 in0.0 mm
10:50 PM 70.6°F21.4°C 52.6°F11.4°C 53% 6.9 mph SSW11.1 kmh SSW 9.2 mph14.8 kmh 29.89 in1012.2 mb - 0.00 in0.0 mm 0.00 in0.0 mm
11:00 PM 70.1°F21.2°C 52.2°F11.2°C 53% 6.9 mph S11.1 kmh S 8.1 mph13.0 kmh 29.89 in1012.2 mb - 0.00 in0.0 mm 0.00 in0.0 mm
11:10 PM 69.9°F21.1°C 52.0°F11.1°C 53% 6.9 mph S11.1 kmh S 10.4 mph16.7 kmh 29.88 in1011.9 mb - 0.00 in0.0 mm 0.00 in0.0 mm
11:20 PM 69.5°F20.8°C 52.1°F11.2°C 54% 5.8 mph S9.3 kmh S 8.1 mph13.0 kmh 29.88 in1011.9 mb - 0.00 in0.0 mm 0.00 in0.0 mm
11:30 PM 69.2°F20.7°C 51.8°F11.0°C 54% 6.9 mph S11.1 kmh S 10.4 mph16.7 kmh 29.89 in1012.2 mb - 0.00 in0.0 mm 0.00 in0.0 mm
11:40 PM 68.8°F20.4°C 52.0°F11.1°C 55% 4.6 mph SSW7.4 kmh SSW 9.2 mph14.8 kmh 29.89 in1012.2 mb - 0.00 in0.0 mm 0.00 in0.0 mm
11:50 PM 68.4°F20.2°C 51.6°F10.9°C 55% 6.9 mph SSW11.1 kmh SSW 11.5 mph18.5 kmh 29.89 in1012.2 mb - 0.00 in0.0 mm 0.00 in0.0 mm